Time;durP1;ratioP1;P1;durP2;ratioP2;P2;SDS_P1;SDS_P2;PMS_P1;PMS_P2;Temp;Humidity;BMP_temperature;BMP_pressure;BME280_temperature;BME280_humidity;BME280_pressure;Samples;Min_cycle;Max_cycle;Signal;HPM_P1;HPM_P2
2021/09/03 00:00:59;;;;;;;15.88;5.35;;;;;;;19.35;56.81;101445.56;5014387;28;20076;-91
2021/09/03 00:03:25;;;;;;;10.45;4.60;;;;;;;19.36;57.10;101442.78;5014661;28;20030;-91
2021/09/03 00:05:50;;;;;;;15.32;5.18;;;;;;;19.33;56.73;101442.22;5014274;28;20062;-91
2021/09/03 00:08:15;;;;;;;14.02;4.55;;;;;;;19.36;56.84;101439.28;5014968;28;20034;-91
2021/09/03 00:10:41;;;;;;;19.00;5.63;;;;;;;19.30;56.98;101432.69;5013946;28;20038;-91
2021/09/03 00:13:06;;;;;;;15.13;4.97;;;;;;;19.39;57.09;101439.00;5014296;28;20124;-91
2021/09/03 00:15:31;;;;;;;11.60;4.53;;;;;;;19.37;56.90;101428.50;5014381;28;20072;-91
2021/09/03 00:17:59;;;;;;;10.68;5.00;;;;;;;19.23;57.47;101431.53;5014285;28;20084;-91
2021/09/03 00:20:24;;;;;;;12.63;5.28;;;;;;;19.30;57.07;101427.34;5014046;28;20113;-91
2021/09/03 00:22:50;;;;;;;11.80;4.50;;;;;;;19.39;57.02;101426.53;5014125;28;20105;-91
2021/09/03 00:25:15;;;;;;;18.40;5.10;;;;;;;19.35;57.08;101425.13;5014089;28;20034;-90
2021/09/03 00:27:41;;;;;;;16.02;5.50;;;;;;;19.23;57.41;101420.88;5014214;28;20607;-91
2021/09/03 00:30:07;;;;;;;11.48;4.45;;;;;;;19.41;57.14;101419.25;4996395;28;20544;-90
2021/09/03 00:32:33;;;;;;;12.95;4.57;;;;;;;19.28;57.56;101413.34;5014230;28;20033;-91
2021/09/03 00:34:58;;;;;;;18.73;5.03;;;;;;;19.31;57.28;101413.06;5014026;28;20365;-90
2021/09/03 00:37:24;;;;;;;15.05;5.10;;;;;;;19.25;57.35;101413.59;5013415;28;20040;-90
2021/09/03 00:39:49;;;;;;;16.02;5.70;;;;;;;19.22;57.46;101400.56;5014024;28;20037;-91
2021/09/03 00:42:15;;;;;;;16.05;5.30;;;;;;;19.18;57.90;101408.00;5013966;28;20030;-90
2021/09/03 00:44:41;;;;;;;14.73;4.63;;;;;;;19.24;57.75;101406.59;5013787;28;20018;-90
2021/09/03 00:47:06;;;;;;;12.82;5.18;;;;;;;19.31;57.54;101401.56;5013807;28;20064;-90
2021/09/03 00:49:32;;;;;;;17.00;5.47;;;;;;;19.14;57.96;101397.75;5013661;28;20432;-90
2021/09/03 00:51:59;;;;;;;12.13;5.18;;;;;;;19.27;57.79;101395.66;5013069;28;20068;-90
2021/09/03 00:54:24;;;;;;;15.23;5.50;;;;;;;19.25;57.66;101392.28;5013624;28;20480;-90
2021/09/03 00:56:50;;;;;;;19.85;5.53;;;;;;;19.12;58.35;101386.41;5013476;28;20036;-90
2021/09/03 00:59:15;;;;;;;13.95;5.28;;;;;;;19.06;58.54;101382.47;5013418;28;20061;-90
2021/09/03 01:01:41;;;;;;;17.15;6.10;;;;;;;18.93;58.44;101385.34;5013490;28;20034;-90
2021/09/03 01:04:06;;;;;;;17.17;5.38;;;;;;;19.04;58.43;101381.75;5013604;28;20041;-91
2021/09/03 01:06:32;;;;;;;16.67;6.07;;;;;;;19.02;58.51;101383.72;5012920;28;20424;-90
2021/09/03 01:08:57;;;;;;;11.70;5.50;;;;;;;19.15;58.34;101383.44;5013095;28;20443;-90
2021/09/03 01:11:22;;;;;;;15.77;5.55;;;;;;;19.14;58.48;101376.47;5012896;28;20026;-91
2021/09/03 01:13:48;;;;;;;14.13;5.32;;;;;;;19.26;58.15;101385.16;5013232;28;20420;-90
2021/09/03 01:16:14;;;;;;;14.25;5.32;;;;;;;19.21;58.04;101381.09;5012276;28;20466;-90
2021/09/03 01:18:39;;;;;;;15.80;5.75;;;;;;;19.13;58.50;101374.75;5013157;28;20109;-90
2021/09/03 01:21:04;;;;;;;10.93;4.75;;;;;;;19.28;58.13;101369.91;5013126;28;20080;-90
2021/09/03 01:23:30;;;;;;;18.50;5.82;;;;;;;19.34;58.23;101375.50;5012691;28;20034;-90
2021/09/03 01:26:00;;;;;;;11.65;5.03;;;;;;;18.98;59.37;101369.00;5012775;28;20072;-90
2021/09/03 01:28:25;;;;;;;19.23;6.00;;;;;;;19.07;58.52;101372.66;5012856;28;20026;-90
2021/09/03 01:30:51;;;;;;;21.98;5.82;;;;;;;19.04;58.88;101360.47;5012917;28;20041;-90
2021/09/03 01:33:16;;;;;;;17.15;5.38;;;;;;;19.12;58.63;101357.97;5012979;28;20032;-90
2021/09/03 01:35:41;;;;;;;17.65;5.35;;;;;;;19.24;58.17;101358.69;5012669;28;20050;-91
2021/09/03 01:38:07;;;;;;;24.95;6.47;;;;;;;19.20;58.49;101349.28;5012606;28;20022;-90
2021/09/03 01:40:33;;;;;;;13.68;6.07;;;;;;;19.21;58.73;101337.63;5012543;28;20033;-90
2021/09/03 01:42:59;;;;;;;18.48;6.40;;;;;;;19.21;58.47;101348.28;5012718;28;20030;-90
2021/09/03 01:45:24;;;;;;;15.25;5.95;;;;;;;19.14;58.70;101341.84;5012563;28;20054;-91
2021/09/03 01:47:49;;;;;;;20.27;6.22;;;;;;;19.13;58.98;101340.16;5012602;28;20026;-90
2021/09/03 01:50:15;;;;;;;18.58;6.63;;;;;;;19.18;58.98;101343.25;5012514;28;20022;-90
2021/09/03 01:52:40;;;;;;;17.50;5.70;;;;;;;19.18;58.75;101335.28;5012478;28;20028;-90
2021/09/03 01:55:06;;;;;;;15.93;5.50;;;;;;;19.23;58.91;101333.03;5012408;28;20110;-90
2021/09/03 01:57:31;;;;;;;13.85;5.68;;;;;;;19.26;58.89;101332.75;5012542;28;20041;-90
2021/09/03 01:59:57;;;;;;;13.15;5.88;;;;;;;19.17;59.19;101336.22;5012483;28;20507;-90
2021/09/03 02:02:22;;;;;;;17.13;6.78;;;;;;;19.14;59.30;101342.69;5012552;28;20049;-90
2021/09/03 02:04:48;;;;;;;21.52;6.97;;;;;;;19.09;59.34;101336.09;5012290;28;20499;-91
2021/09/03 02:07:13;;;;;;;19.60;6.10;;;;;;;19.09;59.49;101328.94;5010825;28;20021;-91
2021/09/03 02:09:38;;;;;;;14.57;5.88;;;;;;;19.15;59.24;101327.53;5012348;28;20037;-91
2021/09/03 02:12:04;;;;;;;18.90;5.85;;;;;;;19.13;59.55;101316.19;5012261;28;20033;-90
2021/09/03 02:14:29;;;;;;;13.30;6.20;;;;;;;19.12;59.50;101319.84;5012171;28;20026;-90
2021/09/03 02:16:55;;;;;;;16.70;5.82;;;;;;;19.12;59.69;101314.53;5012303;28;20030;-90
2021/09/03 02:19:20;;;;;;;9.63;5.10;;;;;;;19.19;59.40;101319.16;5012202;28;20022;-90
2021/09/03 02:21:45;;;;;;;18.15;5.38;;;;;;;19.03;60.20;101318.84;5011831;28;20038;-90
2021/09/03 02:24:11;;;;;;;17.38;5.72;;;;;;;18.96;59.84;101315.91;5012244;28;20072;-90
2021/09/03 02:26:36;;;;;;;11.93;5.35;;;;;;;18.97;60.10;101314.91;5012106;28;20033;-90
2021/09/03 02:29:01;;;;;;;16.35;6.20;;;;;;;18.89;60.41;101311.25;5011829;28;20041;-90
2021/09/03 02:31:27;;;;;;;18.98;6.38;;;;;;;18.87;60.24;101308.72;5012151;28;20541;-91
2021/09/03 02:33:52;;;;;;;14.38;5.60;;;;;;;18.89;60.10;101306.75;5012132;28;20061;-91
2021/09/03 02:36:17;;;;;;;15.65;6.60;;;;;;;18.82;60.62;101309.13;5011592;28;20029;-90
2021/09/03 02:38:44;;;;;;;16.73;5.65;;;;;;;18.89;60.45;101311.25;5012002;28;20029;-90
2021/09/03 02:41:09;;;;;;;21.40;6.28;;;;;;;18.89;60.12;101312.09;5012246;28;20022;-91
2021/09/03 02:43:35;;;;;;;17.90;5.93;;;;;;;18.68;60.74;101301.50;5011915;28;20040;-90
2021/09/03 02:46:00;;;;;;;17.85;5.72;;;;;;;18.78;60.60;101298.88;5011717;28;20030;-91
2021/09/03 02:48:26;;;;;;;19.33;6.13;;;;;;;18.79;60.81;101289.91;5011890;28;20026;-91
2021/09/03 02:50:51;;;;;;;12.57;5.75;;;;;;;18.83;60.34;101294.00;5011542;28;20033;-91
2021/09/03 02:53:17;;;;;;;18.60;5.60;;;;;;;18.86;60.50;101290.22;5011698;28;20038;-90
2021/09/03 02:55:42;;;;;;;16.50;5.20;;;;;;;18.74;60.77;101279.69;5011892;28;20481;-91
2021/09/03 02:58:07;;;;;;;18.42;6.82;;;;;;;18.97;60.09;101277.66;5011823;28;20041;-90
2021/09/03 03:00:34;;;;;;;12.27;5.60;;;;;;;18.99;60.17;101278.34;5012082;28;20026;-90
2021/09/03 03:02:59;;;;;;;17.80;5.55;;;;;;;18.90;60.63;101271.22;5011701;28;20053;-90
2021/09/03 03:05:25;;;;;;;16.80;6.10;;;;;;;18.90;60.61;101276.53;4994057;28;20160;-91
2021/09/03 03:07:50;;;;;;;20.55;7.03;;;;;;;18.71;60.99;101271.97;5011675;28;20392;-91
2021/09/03 03:10:16;;;;;;;17.75;5.95;;;;;;;18.88;60.59;101270.50;5011380;28;20030;-91
2021/09/03 03:12:42;;;;;;;16.40;6.40;;;;;;;19.00;60.35;101268.56;5011691;28;20139;-90
2021/09/03 03:15:08;;;;;;;11.90;4.97;;;;;;;18.98;60.44;101259.88;5011996;28;20034;-90
2021/09/03 03:17:34;;;;;;;14.73;5.30;;;;;;;18.96;60.33;101269.81;5011713;28;20041;-90
2021/09/03 03:19:59;;;;;;;14.25;5.32;;;;;;;18.94;60.61;101256.66;4993966;28;20033;-90
2021/09/03 03:22:24;;;;;;;11.60;5.38;;;;;;;18.92;60.63;101258.59;5011497;28;20164;-91
2021/09/03 03:24:50;;;;;;;11.10;5.47;;;;;;;18.94;60.60;101255.81;5011327;28;20075;-90
2021/09/03 03:27:15;;;;;;;17.85;5.53;;;;;;;18.97;60.46;101258.19;5011657;28;20388;-91
2021/09/03 03:29:41;;;;;;;13.45;5.68;;;;;;;18.88;60.66;101261.66;5011324;28;20065;-90
2021/09/03 03:32:06;;;;;;;18.17;5.60;;;;;;;18.82;60.96;101257.75;5011466;28;20476;-90
2021/09/03 03:34:32;;;;;;;14.27;5.68;;;;;;;18.83;60.96;101257.59;5011415;28;20376;-90
2021/09/03 03:36:57;;;;;;;21.70;6.82;;;;;;;18.81;61.26;101264.03;5011452;28;20484;-90
2021/09/03 03:39:22;;;;;;;14.65;5.60;;;;;;;18.86;61.00;101256.50;5011713;28;20041;-90
2021/09/03 03:41:48;;;;;;;15.95;6.03;;;;;;;18.86;61.05;101253.84;5014990;28;20096;-90
2021/09/03 03:44:13;;;;;;;11.20;5.35;;;;;;;18.84;61.21;101255.78;5015147;28;20477;-91
2021/09/03 03:46:38;;;;;;;16.02;5.50;;;;;;;18.87;61.17;101250.19;5014824;28;20032;-91
2021/09/03 03:49:04;;;;;;;17.63;6.15;;;;;;;18.80;61.54;101249.06;5014870;28;20392;-91
2021/09/03 03:51:29;;;;;;;21.00;6.82;;;;;;;18.79;61.07;101250.00;5014847;28;20026;-90
2021/09/03 03:53:55;;;;;;;21.42;7.05;;;;;;;18.72;61.29;101243.53;5013167;28;20030;-91
2021/09/03 03:56:20;;;;;;;19.73;6.30;;;;;;;18.81;61.21;101245.41;5014906;28;20068;-90
2021/09/03 03:58:46;;;;;;;23.30;6.88;;;;;;;18.81;60.77;101253.41;5015168;28;20468;-90
2021/09/03 04:01:12;;;;;;;18.85;6.10;;;;;;;18.84;61.20;101239.84;5014593;28;20036;-90
2021/09/03 04:03:38;;;;;;;13.30;5.90;;;;;;;18.84;61.10;101247.81;5014507;28;20492;-90
2021/09/03 04:06:03;;;;;;;18.60;5.80;;;;;;;18.80;60.90;101244.59;5014574;28;20105;-90
2021/09/03 04:08:28;;;;;;;17.63;6.03;;;;;;;18.77;61.03;101234.16;5014089;28;20496;-90
2021/09/03 04:10:54;;;;;;;15.90;6.35;;;;;;;18.81;60.62;101246.25;5014258;28;20061;-90
2021/09/03 04:13:20;;;;;;;12.05;5.22;;;;;;;18.81;60.86;101232.94;5014266;28;20480;-90
2021/09/03 04:15:45;;;;;;;12.05;5.50;;;;;;;18.75;61.44;101236.13;5014503;28;20048;-90
2021/09/03 04:18:11;;;;;;;19.77;6.70;;;;;;;18.82;60.86;101231.16;5014247;28;20502;-90
2021/09/03 04:20:36;;;;;;;17.88;5.93;;;;;;;18.76;60.33;101231.63;5014366;28;20052;-90
2021/09/03 04:23:02;;;;;;;13.15;5.43;;;;;;;18.83;60.14;101230.16;5013919;28;20068;-90
2021/09/03 04:25:27;;;;;;;14.00;6.63;;;;;;;18.71;60.18;101231.22;5014226;28;20033;-90
2021/09/03 04:27:52;;;;;;;22.80;6.47;;;;;;;18.66;60.15;101226.31;5014212;28;20022;-90
2021/09/03 04:30:18;;;;;;;14.18;5.80;;;;;;;18.73;60.14;101231.94;4996614;28;20037;-90
2021/09/03 04:32:43;;;;;;;16.40;6.53;;;;;;;18.78;60.39;101232.38;5014051;28;20030;-90
2021/09/03 04:35:09;;;;;;;21.13;6.30;;;;;;;18.79;60.02;101226.06;5013943;28;20033;-90
2021/09/03 04:37:40;;;;;;;17.60;5.93;;;;;;;18.92;59.57;101229.34;5013543;28;20022;-90
2021/09/03 04:40:06;;;;;;;15.60;6.18;;;;;;;18.81;59.87;101224.97;5013909;28;20477;-90
2021/09/03 04:42:31;;;;;;;13.57;6.47;;;;;;;18.76;60.14;101223.66;5014022;28;20029;-90
2021/09/03 04:44:56;;;;;;;16.35;5.35;;;;;;;18.81;59.69;101224.13;5013776;28;20026;-90
2021/09/03 04:47:22;;;;;;;16.83;6.50;;;;;;;18.71;60.02;101224.09;5013804;28;20036;-90
2021/09/03 04:49:47;;;;;;;17.60;5.97;;;;;;;18.88;59.64;101225.28;5013522;28;20026;-89
2021/09/03 04:52:12;;;;;;;14.40;6.80;;;;;;;18.86;59.88;101226.38;5013072;28;20034;-90
2021/09/03 04:54:38;;;;;;;17.23;6.18;;;;;;;18.83;60.01;101227.50;5013214;28;20036;-90
2021/09/03 04:57:03;;;;;;;15.27;6.25;;;;;;;18.69;59.93;101220.72;5013604;28;20110;-90
2021/09/03 04:59:29;;;;;;;18.00;6.40;;;;;;;18.75;59.71;101228.16;5013679;28;20036;-90
2021/09/03 05:01:54;;;;;;;22.23;6.60;;;;;;;18.77;59.74;101222.69;5013420;28;20069;-90
2021/09/03 05:04:19;;;;;;;15.13;6.72;;;;;;;18.73;58.88;101221.28;5013569;28;20065;-90
2021/09/03 05:06:44;;;;;;;15.57;5.63;;;;;;;18.77;59.27;101225.34;5013384;28;20028;-90
2021/09/03 05:09:10;;;;;;;22.30;6.97;;;;;;;18.67;59.11;101232.47;5013005;28;20032;-90
2021/09/03 05:11:35;;;;;;;15.05;6.00;;;;;;;18.73;59.04;101229.28;5013020;28;20034;-90
2021/09/03 05:14:00;;;;;;;17.88;6.18;;;;;;;18.69;59.56;101230.53;5013401;28;20076;-90
2021/09/03 05:16:26;;;;;;;15.25;6.15;;;;;;;18.68;59.36;101229.69;5013155;28;20050;-90
2021/09/03 05:18:51;;;;;;;14.43;5.88;;;;;;;18.74;59.12;101229.13;5013291;28;20052;-90
2021/09/03 05:21:16;;;;;;;12.07;5.05;;;;;;;18.77;58.90;101228.00;5013409;28;20251;-90
2021/09/03 05:23:42;;;;;;;15.30;5.18;;;;;;;18.76;58.93;101226.31;5012941;28;20454;-89
2021/09/03 05:26:07;;;;;;;18.10;5.85;;;;;;;18.71;58.00;101228.56;5012750;28;20463;-90
2021/09/03 05:28:33;;;;;;;20.75;6.47;;;;;;;18.68;57.64;101224.38;5013061;28;20022;-90
2021/09/03 05:30:58;;;;;;;17.13;6.25;;;;;;;18.65;58.14;101224.63;5012970;28;20029;-90
2021/09/03 05:33:23;;;;;;;15.52;6.05;;;;;;;18.68;57.67;101228.81;5011706;28;20096;-89
2021/09/03 05:35:49;;;;;;;15.80;5.75;;;;;;;18.80;57.71;101231.28;5012776;28;20022;-90
2021/09/03 05:38:14;;;;;;;20.98;6.68;;;;;;;18.80;58.12;101228.63;5012455;28;20117;-90
2021/09/03 05:40:40;;;;;;;15.05;6.07;;;;;;;18.90;58.23;101231.28;5012819;28;20061;-90
2021/09/03 05:43:05;;;;;;;19.92;6.53;;;;;;;18.81;58.95;101232.94;5012837;28;20029;-90
2021/09/03 05:45:33;;;;;;;19.95;7.75;;;;;;;18.92;58.81;101234.66;5012685;28;20026;-90
2021/09/03 05:48:01;;;;;;;17.80;6.75;;;;;;;18.81;59.12;101234.78;5012702;28;20109;-90
2021/09/03 05:50:27;;;;;;;14.52;6.80;;;;;;;18.84;59.19;101234.50;5012606;28;20029;-90
2021/09/03 05:52:53;;;;;;;19.88;7.18;;;;;;;18.87;59.55;101228.91;5012474;28;20124;-90
2021/09/03 05:55:19;;;;;;;21.67;7.35;;;;;;;18.80;59.63;101233.09;5012464;28;20040;-90
2021/09/03 05:57:44;;;;;;;19.60;7.05;;;;;;;18.91;59.40;101234.78;5012619;28;20113;-90
2021/09/03 06:00:10;;;;;;;18.70;6.38;;;;;;;18.91;59.54;101232.13;5012453;28;20061;-90
2021/09/03 06:02:35;;;;;;;15.45;6.90;;;;;;;18.80;59.96;101225.13;5011954;28;20107;-90
2021/09/03 06:05:02;;;;;;;22.02;7.32;;;;;;;18.89;59.88;101221.63;5012265;28;20104;-90
2021/09/03 06:07:27;;;;;;;14.32;7.65;;;;;;;18.91;59.73;101227.63;5012158;28;20080;-90
2021/09/03 06:09:53;;;;;;;17.05;6.70;;;;;;;18.90;59.68;101233.09;5012344;28;20389;-90
2021/09/03 06:12:18;;;;;;;22.85;7.80;;;;;;;18.91;59.99;101226.81;5012183;28;20033;-90
2021/09/03 06:14:43;;;;;;;17.73;6.70;;;;;;;18.81;60.14;101232.13;5012239;28;20052;-89
2021/09/03 06:17:09;;;;;;;22.33;6.90;;;;;;;18.85;59.99;101236.19;5012318;28;20483;-89
2021/09/03 06:19:34;;;;;;;17.40;7.25;;;;;;;18.86;60.11;101232.56;5012220;28;20018;-90
2021/09/03 06:22:01;;;;;;;18.02;6.75;;;;;;;19.05;59.80;101230.88;5012018;28;20029;-90
2021/09/03 06:24:30;;;;;;;23.63;7.20;;;;;;;19.12;59.30;101232.84;5010936;28;20030;-89
2021/09/03 06:27:01;;;;;;;25.92;7.55;;;;;;;19.19;59.91;101239.31;5012307;28;20045;-90
2021/09/03 06:32:15;;;;;;;18.23;6.70;;;;;;;19.36;59.62;101232.41;5012448;28;20268;-91
2021/09/03 06:34:52;;;;;;;20.40;7.85;;;;;;;19.23;60.49;101231.84;5012125;28;20026;-90
2021/09/03 06:37:18;;;;;;;19.10;7.28;;;;;;;19.27;60.42;101235.91;5011622;28;20034;-91
2021/09/03 06:39:44;;;;;;;23.55;8.77;;;;;;;19.22;60.57;101235.50;5011418;28;20031;-96
2021/09/03 06:42:10;;;;;;;22.27;7.85;;;;;;;19.39;60.29;101232.13;4992963;28;20034;-96
2021/09/03 06:44:36;;;;;;;21.30;7.75;;;;;;;19.38;60.73;101229.63;5006394;28;20017;-96
2021/09/03 06:47:01;;;;;;;21.63;7.80;;;;;;;19.38;60.77;101226.94;5022042;28;20616;-96
2021/09/03 06:49:27;;;;;;;17.02;7.53;;;;;;;19.42;60.78;101233.66;5012965;28;20117;-92
2021/09/03 06:51:52;;;;;;;20.98;8.35;;;;;;;19.42;61.01;101226.50;5011516;28;20056;-92
2021/09/03 06:54:18;;;;;;;17.73;7.20;;;;;;;19.42;61.25;101225.69;5015999;28;20107;-91
2021/09/03 06:56:44;;;;;;;19.90;8.20;;;;;;;19.53;61.49;101225.53;5031259;28;20033;-91
2021/09/03 06:59:09;;;;;;;25.17;8.07;;;;;;;19.57;61.09;101226.09;5031634;28;20025;-90
2021/09/03 07:01:35;;;;;;;25.08;8.43;;;;;;;19.67;60.86;101226.91;5019883;28;20541;-92
2021/09/03 07:04:00;;;;;;;19.45;7.50;;;;;;;19.88;60.68;101232.06;5011347;28;20638;-91
2021/09/03 07:06:26;;;;;;;21.15;8.60;;;;;;;20.04;60.19;101218.13;4995641;28;20034;-91
2021/09/03 07:08:51;;;;;;;20.45;7.63;;;;;;;20.13;59.70;101224.41;5021570;28;20116;-92
2021/09/03 07:11:17;;;;;;;23.92;7.53;;;;;;;20.21;59.60;101230.69;5011319;28;20057;-90
2021/09/03 07:13:42;;;;;;;29.58;8.95;;;;;;;20.32;59.35;101228.81;5011723;28;20068;-89
2021/09/03 07:16:08;;;;;;;24.50;8.50;;;;;;;20.46;58.64;101224.81;4996909;28;20053;-89
2021/09/03 07:18:33;;;;;;;18.40;6.65;;;;;;;20.62;57.71;101225.03;5015390;28;20049;-89
2021/09/03 07:20:58;;;;;;;19.08;6.85;;;;;;;20.68;57.36;101227.09;5015429;28;20076;-89
2021/09/03 07:23:24;;;;;;;21.42;6.45;;;;;;;20.79;55.58;101226.91;5023624;28;20497;-89
2021/09/03 07:25:49;;;;;;;18.58;6.70;;;;;;;21.16;54.70;101230.41;5019548;28;20072;-89
2021/09/03 07:28:15;;;;;;;19.02;6.47;;;;;;;21.20;54.28;101229.94;5021594;28;20040;-89
2021/09/03 07:30:41;;;;;;;15.75;6.65;;;;;;;21.36;53.73;101231.06;5034859;28;20037;-89
2021/09/03 07:33:06;;;;;;;20.15;5.78;;;;;;;21.36;53.97;101229.22;5029648;28;20435;-89
2021/09/03 07:35:32;;;;;;;18.45;6.40;;;;;;;21.50;52.39;101227.03;5015361;28;20030;-89
2021/09/03 07:37:57;;;;;;;15.82;5.50;;;;;;;21.70;51.91;101231.19;5018046;28;20025;-90
2021/09/03 07:40:23;;;;;;;15.05;5.35;;;;;;;21.90;51.64;101222.94;5020718;28;20044;-89
2021/09/03 07:42:49;;;;;;;13.07;6.28;;;;;;;22.13;51.11;101217.88;5019644;28;20022;-88
2021/09/03 07:45:14;;;;;;;17.63;6.07;;;;;;;22.10;50.73;101213.69;5034845;28;20026;-88
2021/09/03 07:47:40;;;;;;;18.10;6.03;;;;;;;22.17;50.30;101213.88;5020257;28;20515;-88
2021/09/03 07:50:06;;;;;;;19.95;6.47;;;;;;;22.13;49.45;101210.69;5014473;28;20030;-88
2021/09/03 07:52:31;;;;;;;14.18;5.75;;;;;;;22.14;49.87;101209.72;5022213;28;20105;-89
2021/09/03 07:54:57;;;;;;;15.48;6.55;;;;;;;22.21;49.88;101203.72;5014483;28;20105;-89
2021/09/03 07:57:23;;;;;;;22.95;6.35;;;;;;;22.02;50.25;101202.97;5027712;28;20057;-88
2021/09/03 07:59:48;;;;;;;19.10;5.75;;;;;;;22.59;49.63;101199.72;5016679;28;20087;-88
2021/09/03 08:02:13;;;;;;;16.25;6.15;;;;;;;22.40;50.31;101216.88;5022716;28;20030;-89
2021/09/03 08:04:39;;;;;;;17.73;5.88;;;;;;;22.35;50.12;101213.81;5025629;28;20022;-89
2021/09/03 08:07:04;;;;;;;18.40;6.20;;;;;;;22.69;49.71;101200.38;5024104;28;20108;-89
2021/09/03 08:09:29;;;;;;;17.45;5.95;;;;;;;23.49;47.28;101204.28;5017940;28;20165;-88
2021/09/03 08:11:55;;;;;;;22.13;7.10;;;;;;;23.64;47.18;101199.09;5013639;28;20199;-89
2021/09/03 08:14:20;;;;;;;16.55;5.78;;;;;;;24.38;44.94;101199.66;5015730;28;20273;-89
2021/09/03 08:16:45;;;;;;;15.20;6.45;;;;;;;25.05;43.81;101200.97;5013808;28;20017;-88
2021/09/03 08:19:11;;;;;;;17.80;6.07;;;;;;;25.70;43.09;101200.38;5014209;28;20032;-89
2021/09/03 08:21:37;;;;;;;20.20;6.70;;;;;;;25.38;43.19;101204.22;5015684;28;20061;-89
2021/09/03 08:24:03;;;;;;;17.05;6.10;;;;;;;25.07;43.37;101202.44;5015279;28;20040;-88
2021/09/03 08:26:29;;;;;;;16.88;5.93;;;;;;;24.85;43.78;101193.38;5013519;28;20025;-88
2021/09/03 08:28:54;;;;;;;12.13;5.75;;;;;;;24.74;44.06;101188.41;5021377;28;20460;-89
2021/09/03 08:31:20;;;;;;;20.80;7.40;;;;;;;24.34;43.00;101196.50;5022318;28;20030;-89
2021/09/03 08:33:45;;;;;;;13.60;5.57;;;;;;;24.19;44.33;101189.38;5013699;28;20555;-89
2021/09/03 08:36:11;;;;;;;14.73;5.93;;;;;;;24.17;43.73;101191.38;5013931;28;20086;-89
2021/09/03 08:38:36;;;;;;;13.63;6.28;;;;;;;23.97;44.08;101189.13;5014047;28;20117;-89
2021/09/03 08:41:02;;;;;;;15.40;6.20;;;;;;;23.80;44.43;101185.66;5014124;28;20025;-89
2021/09/03 08:43:28;;;;;;;17.67;6.68;;;;;;;23.21;45.49;101201.97;5014001;28;20373;-88
2021/09/03 08:45:54;;;;;;;16.30;6.13;;;;;;;23.43;46.00;101191.56;5013468;28;20533;-89
2021/09/03 08:48:21;;;;;;;17.77;7.20;;;;;;;23.68;45.62;101198.56;5013408;28;20034;-89
2021/09/03 08:50:48;;;;;;;16.98;7.00;;;;;;;23.58;45.23;101189.88;5013682;28;20073;-89
2021/09/03 08:53:19;;;;;;;12.23;6.53;;;;;;;23.63;44.58;101194.72;5013612;28;20022;-89
2021/09/03 08:55:47;;;;;;;16.88;6.20;;;;;;;23.69;44.88;101191.34;5013521;28;20030;-88
2021/09/03 08:58:12;;;;;;;16.50;6.90;;;;;;;23.54;44.99;101189.38;5013865;28;20062;-89
2021/09/03 09:00:38;;;;;;;16.10;6.80;;;;;;;23.64;45.70;101197.22;4996079;28;20522;-89
2021/09/03 09:03:10;;;;;;;16.98;6.50;;;;;;;23.87;45.39;101196.53;5013190;28;20057;-89
2021/09/03 09:05:56;;;;;;;13.48;6.80;;;;;;;23.98;44.88;101185.44;5013227;28;20443;-89
2021/09/03 09:08:24;;;;;;;15.15;5.25;;;;;;;23.96;44.90;101192.81;5013372;28;20049;-89
2021/09/03 09:10:53;;;;;;;18.88;7.15;;;;;;;23.59;45.05;101194.22;5013312;28;20030;-89
2021/09/03 09:13:33;;;;;;;16.52;6.80;;;;;;;23.71;45.09;101200.88;5013232;28;20083;-89
2021/09/03 09:16:00;;;;;;;14.90;6.38;;;;;;;23.72;45.21;101189.16;5013216;28;20026;-89
2021/09/03 09:18:52;;;;;;;17.30;6.43;;;;;;;23.99;44.72;101192.44;5012594;28;20052;-89
2021/09/03 09:21:30;;;;;;;20.67;7.00;;;;;;;23.86;44.71;101193.00;5013096;28;20029;-88
2021/09/03 09:24:12;;;;;;;20.27;6.88;;;;;;;23.66;44.44;101197.91;5013167;28;20518;-89
2021/09/03 09:26:57;;;;;;;14.23;5.53;;;;;;;24.22;44.41;101195.22;5013034;28;20149;-88
2021/09/03 09:29:28;;;;;;;14.65;6.03;;;;;;;24.38;44.43;101198.84;5013037;28;20099;-88
2021/09/03 09:31:56;;;;;;;13.23;6.07;;;;;;;24.58;43.77;101193.91;5012972;28;20073;-89
2021/09/03 09:34:29;;;;;;;12.02;6.45;;;;;;;24.49;42.77;101196.59;5011255;28;20041;-89
2021/09/03 09:36:59;;;;;;;16.58;6.65;;;;;;;24.63;43.04;101189.66;4994485;28;20054;-89
2021/09/03 09:39:25;;;;;;;19.08;7.68;;;;;;;24.63;42.80;101188.84;5012851;28;20105;-89
2021/09/03 09:42:00;;;;;;;21.27;7.57;;;;;;;24.76;41.74;101188.25;5012804;28;20030;-88
2021/09/03 09:44:34;;;;;;;14.43;6.75;;;;;;;24.76;42.36;101186.38;5012825;28;20038;-89
2021/09/03 09:47:08;;;;;;;13.63;6.95;;;;;;;24.84;42.17;101177.44;5012804;28;20033;-88
2021/09/03 09:49:35;;;;;;;11.90;5.97;;;;;;;25.14;42.13;101183.75;4991775;28;20036;-88
2021/09/03 09:52:00;;;;;;;11.85;6.13;;;;;;;25.24;41.64;101184.38;4993192;28;20389;-89
2021/09/03 09:54:26;;;;;;;10.95;5.72;;;;;;;25.35;40.44;101176.88;4993097;28;20022;-89
2021/09/03 09:56:51;;;;;;;8.25;5.03;;;;;;;25.52;40.37;101181.06;4992885;28;20476;-89
2021/09/03 09:59:19;;;;;;;13.02;6.53;;;;;;;25.54;40.71;101179.03;4992936;28;20069;-89
2021/09/03 10:01:47;;;;;;;13.95;7.15;;;;;;;25.58;40.15;101183.03;4993010;28;20031;-89
2021/09/03 10:04:16;;;;;;;13.13;6.13;;;;;;;25.70;40.56;101183.41;4993183;28;20557;-89
2021/09/03 10:06:44;;;;;;;16.02;8.20;;;;;;;25.58;40.77;101185.72;5012477;28;20026;-89
2021/09/03 10:09:13;;;;;;;13.18;6.70;;;;;;;25.44;41.50;101181.16;5012705;28;20030;-88
2021/09/03 10:11:40;;;;;;;13.50;6.60;;;;;;;25.21;41.24;101182.00;5014584;28;20117;-89
2021/09/03 10:14:08;;;;;;;12.55;8.13;;;;;;;25.14;41.43;101183.75;5014458;28;20026;-89
2021/09/03 10:16:34;;;;;;;15.93;7.95;;;;;;;24.99;41.26;101186.38;5012218;28;20084;-89
2021/09/03 10:19:03;;;;;;;14.20;7.20;;;;;;;25.11;41.38;101178.72;5012070;28;20068;-89
2021/09/03 10:21:30;;;;;;;17.15;8.00;;;;;;;24.94;42.33;101181.56;5012603;28;20060;-89
2021/09/03 10:24:06;;;;;;;15.35;7.13;;;;;;;25.14;41.46;101186.44;4994489;28;20547;-89
2021/09/03 10:26:40;;;;;;;16.90;8.82;;;;;;;25.12;41.46;101175.88;5010603;28;20060;-89
2021/09/03 10:29:18;;;;;;;17.00;9.23;;;;;;;25.32;40.74;101176.22;5012245;28;20034;-89
2021/09/03 10:34:42;;;;;;;19.48;9.52;;;;;;;25.60;39.77;101181.00;5012134;28;20504;-89
2021/09/03 10:37:13;;;;;;;16.40;9.80;;;;;;;25.33;41.10;101175.19;5011585;28;20488;-88
2021/09/03 10:39:56;;;;;;;17.63;8.98;;;;;;;25.52;40.31;101178.38;4994472;28;20041;-89
2021/09/03 10:45:17;;;;;;;16.38;8.52;;;;;;;25.51;41.03;101174.00;5012107;28;20030;-89
2021/09/03 10:47:46;;;;;;;22.98;10.52;;;;;;;25.12;41.42;101178.56;5011981;28;20104;-88
2021/09/03 10:50:23;;;;;;;18.85;8.82;;;;;;;25.43;41.30;101171.41;5015922;28;20083;-89
2021/09/03 10:53:04;;;;;;;16.75;9.15;;;;;;;25.26;40.94;101168.06;4998361;28;20045;-88
2021/09/03 10:56:05;;;;;;;19.88;10.20;;;;;;;25.75;41.28;101169.41;4996602;28;20575;-89
2021/09/03 10:58:36;;;;;;;18.35;9.05;;;;;;;25.71;41.04;101166.22;4996318;28;20045;-89
2021/09/03 11:03:36;;;;;;;17.35;10.25;;;;;;;25.50;40.85;101156.22;4996190;28;20023;-89
2021/09/03 11:06:02;;;;;;;18.08;9.80;;;;;;;25.76;40.61;101160.31;4996051;28;20559;-88
2021/09/03 11:08:44;;;;;;;15.80;9.63;;;;;;;26.20;40.10;101154.91;5001854;28;20037;-89
2021/09/03 11:11:22;;;;;;;20.00;11.02;;;;;;;26.36;39.87;101155.69;5015434;28;20029;-89
2021/09/03 11:13:56;;;;;;;17.58;10.40;;;;;;;26.38;39.68;101149.09;5015465;28;20030;-89
2021/09/03 11:16:42;;;;;;;19.60;10.60;;;;;;;26.65;40.28;101138.63;5015003;28;20028;-89
2021/09/03 11:19:10;;;;;;;17.48;9.02;;;;;;;26.61;40.27;101131.97;5015046;28;20058;-89
2021/09/03 11:21:44;;;;;;;17.20;9.38;;;;;;;26.85;40.11;101136.94;5015485;28;20116;-89
2021/09/03 11:24:13;;;;;;;19.27;10.55;;;;;;;27.09;38.38;101129.47;5015569;28;20018;-89
2021/09/03 11:26:39;;;;;;;18.25;8.77;;;;;;;27.08;38.55;101128.66;5015211;28;20033;-89